Hamlet, Indiana
Current Conditions -  °F | °C
As of 3:35 PM on Friday 19 Dec 2014 (Local Time) from KOXI Reporting Station
Overcast Overcast  
Wind Chill: 25°   Ceiling: 2100
Heat Index: 31°   Visibility: 10mi
Dew Point: 24°   Wind: 6mph
Humidity: 75%   Direction: 290°WNW
Pressure: 30.27"   Gusts: NA
Location:  41.38°N, 86.58°W
Report Text: KOXI 192135Z AUTO 29005KT 10SM OVC021 00/M04 A3027 RMK AO1 T10051045
Loading
Personal Weather Stations






























Interactive Weather Map New forecast layout! Learn more

10-Day Weather Forecast

Advertisements
Track Severe Weather on mobile